Time;durP1;ratioP1;P1;durP2;ratioP2;P2;SDS_P1;SDS_P2;PMS_P1;PMS_P2;Temp;Humidity;BMP_temperature;BMP_pressure;BME280_temperature;BME280_humidity;BME280_pressure;Samples;Min_cycle;Max_cycle;Signal;HPM_P1;HPM_P2
2022/09/14 00:01:27;;;;;;;3.08;2.15;;;23.30;72.20;;;;;;5114977;28;20020;-70
2022/09/14 00:03:58;;;;;;;4.35;2.22;;;23.30;72.30;;;;;;5115017;28;20411;-70
2022/09/14 00:06:24;;;;;;;4.70;2.13;;;23.30;72.30;;;;;;5096823;28;20028;-70
2022/09/14 00:08:51;;;;;;;3.10;1.95;;;23.30;72.30;;;;;;5114628;28;20403;-70
2022/09/14 00:11:17;;;;;;;5.68;2.25;;;23.30;72.30;;;;;;5114055;28;20141;-70
2022/09/14 00:13:44;;;;;;;3.72;2.17;;;23.30;72.40;;;;;;5114212;28;20503;-70
2022/09/14 00:16:18;;;;;;;6.40;2.40;;;23.30;72.40;;;;;;5114296;28;20020;-70
2022/09/14 00:18:44;;;;;;;3.33;2.15;;;23.30;72.50;;;;;;5073785;28;20040;-70
2022/09/14 00:21:10;;;;;;;2.53;1.98;;;23.30;72.40;;;;;;5073224;28;20024;-70
2022/09/14 00:23:37;;;;;;;4.18;2.10;;;23.40;72.40;;;;;;5073668;28;20428;-70
2022/09/14 00:26:03;;;;;;;6.88;2.30;;;23.30;72.40;;;;;;5095509;28;20028;-70
2022/09/14 00:28:29;;;;;;;5.07;2.75;;;23.30;72.40;;;;;;5114289;28;20495;-70
2022/09/14 00:30:55;;;;;;;4.75;2.40;;;23.30;72.40;;;;;;5113703;28;20024;-70
2022/09/14 00:33:20;;;;;;;5.78;2.42;;;23.30;72.50;;;;;;5115696;28;20059;-70
2022/09/14 00:35:46;;;;;;;3.03;2.15;;;23.30;72.40;;;;;;5115502;28;20026;-70
2022/09/14 00:38:12;;;;;;;3.10;2.30;;;23.30;72.50;;;;;;5115494;28;20107;-70
2022/09/14 00:40:38;;;;;;;4.05;2.10;;;23.40;72.70;;;;;;5115562;28;20364;-70
2022/09/14 00:43:07;;;;;;;3.13;2.05;;;23.40;72.50;;;;;;5115379;28;20024;-70
2022/09/14 00:45:32;;;;;;;4.10;2.33;;;23.40;72.60;;;;;;5097680;28;20022;-71
2022/09/14 00:47:58;;;;;;;3.13;2.10;;;23.40;72.60;;;;;;5115290;28;20106;-70
2022/09/14 00:50:24;;;;;;;3.78;2.15;;;23.40;72.70;;;;;;5113932;28;20414;-70
2022/09/14 00:52:49;;;;;;;5.60;2.10;;;23.40;72.60;;;;;;5114036;28;20024;-70
2022/09/14 00:55:17;;;;;;;4.38;2.20;;;23.40;72.60;;;;;;5115242;28;20016;-70
2022/09/14 00:57:48;;;;;;;5.88;2.38;;;23.40;72.60;;;;;;5096985;28;20020;-70
2022/09/14 01:00:15;;;;;;;3.17;2.33;;;23.40;72.60;;;;;;5113733;28;20023;-70
2022/09/14 01:02:41;;;;;;;5.82;2.10;;;23.40;72.60;;;;;;5113942;28;20039;-70
2022/09/14 01:05:08;;;;;;;2.25;2.03;;;23.40;72.50;;;;;;5113726;28;20024;-70
2022/09/14 01:07:55;;;;;;;6.70;2.25;;;23.40;72.50;;;;;;5114789;28;20030;-70
2022/09/14 01:10:56;;;;;;;2.60;1.95;;;23.40;72.50;;;;;;5113405;28;20383;-70
2022/09/14 01:13:44;;;;;;;6.35;2.25;;;23.40;72.50;;;;;;5090490;28;20031;-70
2022/09/14 01:16:15;;;;;;;3.17;2.08;;;23.40;72.60;;;;;;5114858;28;20024;-70
2022/09/14 01:18:45;;;;;;;8.70;2.28;;;23.40;72.50;;;;;;5072896;28;20036;-70
2022/09/14 01:21:19;;;;;;;4.30;2.03;;;23.40;72.50;;;;;;5073062;28;20020;-70
2022/09/14 01:24:02;;;;;;;2.80;1.98;;;23.40;72.60;;;;;;5074162;28;20331;-70
2022/09/14 01:26:59;;;;;;;2.53;1.90;;;23.40;72.50;;;;;;5073696;28;20059;-70
2022/09/14 01:29:36;;;;;;;5.40;2.10;;;23.40;72.50;;;;;;5067875;28;20116;-70
2022/09/14 01:32:25;;;;;;;2.80;2.17;;;23.40;72.60;;;;;;5072322;28;20047;-70
2022/09/14 01:35:30;;;;;;;3.65;2.42;;;23.40;72.60;;;;;;5056263;28;20024;-70
2022/09/14 01:38:00;;;;;;;3.08;2.13;;;23.40;72.50;;;;;;5061908;28;20032;-70
2022/09/14 01:40:32;;;;;;;7.53;2.38;;;23.40;73.70;;;;;;5071528;28;20024;-70
2022/09/14 01:43:00;;;;;;;;;;;23.40;72.60;;;;;;5071705;28;20024;-70
2022/09/14 01:45:26;;;;;;;3.50;2.40;;;23.40;72.60;;;;;;5073166;28;20042;-70
2022/09/14 01:48:02;;;;;;;3.90;2.30;;;23.40;72.60;;;;;;5055408;28;20103;-70
2022/09/14 01:50:37;;;;;;;6.38;2.33;;;23.40;72.60;;;;;;5055249;28;20047;-70
2022/09/14 01:53:12;;;;;;;2.88;2.15;;;23.40;72.60;;;;;;5072912;28;20500;-70
2022/09/14 01:55:43;;;;;;;3.97;2.50;;;23.50;72.60;;;;;;5071538;28;20574;-70
2022/09/14 01:58:30;;;;;;;4.18;1.90;;;23.50;72.60;;;;;;5072897;28;20055;-70
2022/09/14 02:00:55;;;;;;;3.42;2.28;;;23.40;72.60;;;;;;5071869;28;20116;-70
2022/09/14 02:03:28;;;;;;;2.92;1.90;;;23.50;72.70;;;;;;5054980;28;20091;-70
2022/09/14 02:06:06;;;;;;;3.35;2.10;;;23.50;72.70;;;;;;5055654;28;20025;-70
2022/09/14 02:08:32;;;;;;;4.28;2.30;;;23.50;72.60;;;;;;5054842;28;20028;-70
2022/09/14 02:10:57;;;;;;;2.28;1.77;;;23.50;72.60;;;;;;5071513;28;20111;-70
2022/09/14 02:13:23;;;;;;;9.73;2.05;;;23.50;72.60;;;;;;5072686;28;20447;-70
2022/09/14 02:15:49;;;;;;;2.92;2.03;;;23.50;72.60;;;;;;5054786;28;20422;-70
2022/09/14 02:18:14;;;;;;;4.70;2.10;;;23.50;72.50;;;;;;5071303;28;20021;-70
2022/09/14 02:20:44;;;;;;;4.82;2.05;;;23.50;72.50;;;;;;5071388;28;20028;-70
2022/09/14 02:23:10;;;;;;;3.53;2.13;;;23.50;72.50;;;;;;5071118;28;20025;-70
2022/09/14 02:25:36;;;;;;;2.88;2.00;;;23.50;72.50;;;;;;5099650;28;20020;-70
2022/09/14 02:28:03;;;;;;;3.80;2.53;;;23.50;72.50;;;;;;5113035;28;20145;-70
2022/09/14 02:30:32;;;;;;;2.50;2.13;;;23.50;72.50;;;;;;5111733;28;20163;-70
2022/09/14 02:33:07;;;;;;;4.78;2.40;;;23.50;72.50;;;;;;5095350;28;20024;-70
2022/09/14 02:35:51;;;;;;;2.08;1.83;;;23.50;72.50;;;;;;5112899;28;20020;-70
2022/09/14 02:38:26;;;;;;;4.35;2.00;;;23.50;72.40;;;;;;5095011;28;20020;-70
2022/09/14 02:40:58;;;;;;;4.40;2.05;;;23.50;72.40;;;;;;5113068;28;20020;-70
2022/09/14 02:43:41;;;;;;;6.13;2.05;;;23.50;72.40;;;;;;5112887;28;20027;-70
2022/09/14 02:46:37;;;;;;;2.28;1.85;;;23.50;72.40;;;;;;5111725;28;20487;-70
2022/09/14 02:49:05;;;;;;;4.00;2.03;;;23.50;72.40;;;;;;5111425;28;20092;-70
2022/09/14 02:51:54;;;;;;;4.10;2.13;;;23.50;72.40;;;;;;5111281;28;20023;-70
2022/09/14 02:54:24;;;;;;;4.05;2.42;;;23.50;72.50;;;;;;5036248;28;20034;-70
2022/09/14 02:56:49;;;;;;;6.60;2.00;;;23.50;72.40;;;;;;5020723;28;20048;-70
2022/09/14 02:59:15;;;;;;;6.55;2.38;;;23.50;72.50;;;;;;5020118;28;20453;-70
2022/09/14 03:01:41;;;;;;;3.03;2.38;;;23.50;72.40;;;;;;5019966;28;20038;-70
2022/09/14 03:04:07;;;;;;;3.58;2.13;;;23.50;72.40;;;;;;5036917;28;20079;-70
2022/09/14 03:06:32;;;;;;;4.25;1.80;;;23.50;72.40;;;;;;5036356;28;20045;-70
2022/09/14 03:08:58;;;;;;;2.95;2.17;;;23.50;72.40;;;;;;5036552;28;20029;-70
2022/09/14 03:11:24;;;;;;;6.93;2.30;;;23.50;72.40;;;;;;5036517;28;20525;-70
2022/09/14 03:13:49;;;;;;;2.25;1.95;;;23.50;72.50;;;;;;5036604;28;20091;-70
2022/09/14 03:16:16;;;;;;;3.33;2.10;;;23.50;72.50;;;;;;5035199;28;20100;-70
2022/09/14 03:18:41;;;;;;;3.13;2.28;;;23.50;72.40;;;;;;4997124;28;20042;-70
2022/09/14 03:21:11;;;;;;;3.08;2.03;;;23.50;72.50;;;;;;4996883;28;20022;-70
2022/09/14 03:23:38;;;;;;;4.50;2.20;;;23.50;72.50;;;;;;4996714;28;20501;-70
2022/09/14 03:26:11;;;;;;;5.43;2.10;;;23.50;72.60;;;;;;5032521;28;20037;-70
2022/09/14 03:28:37;;;;;;;4.72;2.17;;;23.50;72.50;;;;;;5019957;28;20060;-70
2022/09/14 03:31:04;;;;;;;3.97;2.40;;;23.50;72.50;;;;;;5068991;28;20077;-70
2022/09/14 03:33:30;;;;;;;3.13;1.85;;;23.50;72.50;;;;;;5101061;28;20089;-70
2022/09/14 03:35:55;;;;;;;4.43;2.38;;;23.50;72.60;;;;;;5117687;28;20031;-70
2022/09/14 03:38:21;;;;;;;4.65;2.00;;;23.40;72.50;;;;;;5119179;27;20027;-70
2022/09/14 03:40:47;;;;;;;3.35;2.28;;;23.50;72.60;;;;;;5119128;28;20019;-70
2022/09/14 03:43:13;;;;;;;2.33;2.13;;;23.50;72.60;;;;;;5100951;28;20088;-70
2022/09/14 03:45:39;;;;;;;5.53;2.00;;;23.40;72.50;;;;;;5117883;28;20031;-70
2022/09/14 03:48:04;;;;;;;2.03;1.83;;;23.50;72.60;;;;;;5117532;28;20024;-71
2022/09/14 03:50:30;;;;;;;3.72;2.20;;;23.40;72.50;;;;;;5117511;28;20058;-70
2022/09/14 03:52:56;;;;;;;3.30;1.80;;;23.40;72.60;;;;;;5118923;28;20012;-71
2022/09/14 03:55:21;;;;;;;4.13;1.95;;;23.40;72.50;;;;;;5117799;28;20506;-71
2022/09/14 03:57:47;;;;;;;2.83;2.10;;;23.40;72.50;;;;;;5117829;28;20076;-70
2022/09/14 04:00:13;;;;;;;5.80;2.10;;;23.50;72.60;;;;;;5118866;28;20030;-70
2022/09/14 04:02:39;;;;;;;2.20;2.00;;;23.40;72.50;;;;;;5117723;28;20070;-70
2022/09/14 04:05:05;;;;;;;3.17;1.52;;;23.40;72.60;;;;;;5114522;28;20032;-70
2022/09/14 04:07:31;;;;;;;3.00;2.13;;;23.40;72.50;;;;;;5114478;28;20518;-70
2022/09/14 04:09:57;;;;;;;3.20;2.35;;;23.40;72.50;;;;;;5115532;28;20019;-70
2022/09/14 04:12:22;;;;;;;4.85;2.17;;;23.40;73.60;;;;;;5114269;28;20031;-70
2022/09/14 04:14:48;;;;;;;2.47;1.60;;;23.40;72.70;;;;;;5115545;28;20082;-70
2022/09/14 04:17:14;;;;;;;6.25;2.30;;;23.40;72.60;;;;;;5097680;28;20447;-70
2022/09/14 04:19:40;;;;;;;3.15;2.25;;;23.40;72.60;;;;;;5073329;28;20031;-70
2022/09/14 04:22:06;;;;;;;3.00;2.10;;;23.50;72.60;;;;;;5074871;28;20021;-70
2022/09/14 04:24:32;;;;;;;3.90;1.98;;;23.40;72.60;;;;;;5083748;28;20376;-70
2022/09/14 04:26:57;;;;;;;5.30;2.30;;;23.40;72.60;;;;;;5115204;28;20031;-70
2022/09/14 04:29:23;;;;;;;3.38;1.83;;;23.40;72.70;;;;;;5115389;28;20027;-70
2022/09/14 04:31:49;;;;;;;3.17;1.70;;;23.40;72.70;;;;;;5113909;28;20027;-70
2022/09/14 04:34:14;;;;;;;2.35;2.00;;;23.40;72.60;;;;;;5113837;28;20023;-70
2022/09/14 04:36:40;;;;;;;2.25;2.05;;;23.40;72.60;;;;;;5115029;28;20153;-70
2022/09/14 04:39:06;;;;;;;3.03;2.20;;;23.40;72.70;;;;;;5113842;28;20107;-70
2022/09/14 04:41:31;;;;;;;2.83;1.90;;;23.40;72.70;;;;;;5115104;28;20489;-70
2022/09/14 04:43:57;;;;;;;3.33;1.98;;;23.40;72.70;;;;;;5114729;28;20542;-70
2022/09/14 04:46:27;;;;;;;4.68;1.77;;;23.40;72.70;;;;;;5113832;28;20099;-70
2022/09/14 04:48:53;;;;;;;3.75;2.10;;;23.40;73.70;;;;;;5096683;28;20487;-70
2022/09/14 04:51:21;;;;;;;3.72;1.90;;;23.40;72.70;;;;;;5096657;28;20024;-70
2022/09/14 04:53:48;;;;;;;2.47;2.20;;;23.40;72.80;;;;;;5096733;28;20028;-70
2022/09/14 04:56:14;;;;;;;2.17;1.88;;;23.40;72.70;;;;;;5113662;28;20046;-70
2022/09/14 04:58:47;;;;;;;4.10;1.77;;;23.40;72.70;;;;;;5096574;28;20051;-70
2022/09/14 05:01:15;;;;;;;3.80;2.00;;;23.40;72.70;;;;;;5113452;28;20020;-70
2022/09/14 05:03:41;;;;;;;2.25;1.67;;;23.40;72.70;;;;;;5114358;28;20291;-70
2022/09/14 05:06:12;;;;;;;3.22;2.05;;;23.40;72.80;;;;;;5096593;28;20114;-70
2022/09/14 05:08:38;;;;;;;3.08;1.67;;;23.40;72.80;;;;;;5096360;28;20084;-70
2022/09/14 05:11:04;;;;;;;2.55;1.90;;;23.40;72.80;;;;;;5113223;28;20020;-70
2022/09/14 05:13:30;;;;;;;4.18;2.17;;;23.40;72.80;;;;;;5113185;28;20418;-70
2022/09/14 05:16:04;;;;;;;6.57;2.40;;;23.40;72.80;;;;;;5096019;28;20100;-70
2022/09/14 05:18:30;;;;;;;2.78;1.77;;;23.40;72.80;;;;;;5057063;28;20030;-70
2022/09/14 05:20:56;;;;;;;2.22;2.00;;;23.40;72.80;;;;;;5073586;28;20107;-70
2022/09/14 05:23:21;;;;;;;3.63;1.95;;;23.40;72.80;;;;;;5073661;28;20020;-70
2022/09/14 05:25:53;;;;;;;3.38;2.08;;;23.40;72.80;;;;;;5104911;28;20019;-70
2022/09/14 05:28:18;;;;;;;2.60;1.80;;;23.40;72.80;;;;;;5114261;28;20023;-70
2022/09/14 05:30:44;;;;;;;5.18;1.70;;;23.30;72.70;;;;;;5112928;28;20410;-70
2022/09/14 05:33:10;;;;;;;4.47;1.80;;;23.40;72.80;;;;;;5113769;28;20055;-70
2022/09/14 05:35:35;;;;;;;3.72;2.22;;;23.30;72.80;;;;;;5113926;28;20493;-70
2022/09/14 05:38:01;;;;;;;2.30;1.95;;;23.30;72.80;;;;;;5114050;28;20057;-70
2022/09/14 05:40:26;;;;;;;1.90;1.80;;;23.40;73.00;;;;;;5113812;28;20053;-70
2022/09/14 05:42:52;;;;;;;2.35;1.85;;;23.30;72.90;;;;;;5113830;28;20023;-70
2022/09/14 05:45:18;;;;;;;3.28;1.92;;;23.30;72.90;;;;;;5113780;28;20027;-69
2022/09/14 05:47:43;;;;;;;2.33;1.98;;;23.40;73.00;;;;;;5112298;28;20395;-69
2022/09/14 05:50:09;;;;;;;2.40;2.00;;;23.30;73.00;;;;;;5113445;28;20039;-70
2022/09/14 05:52:34;;;;;;;2.78;2.08;;;23.40;73.10;;;;;;5112481;28;20031;-70
2022/09/14 05:55:01;;;;;;;3.05;2.00;;;23.40;73.20;;;;;;5112179;28;20058;-70
2022/09/14 05:57:26;;;;;;;4.85;2.00;;;23.40;73.20;;;;;;5112233;28;20433;-70
2022/09/14 05:59:52;;;;;;;3.65;1.95;;;23.40;73.20;;;;;;5113226;28;20062;-70
2022/09/14 06:02:17;;;;;;;4.35;1.90;;;23.40;73.50;;;;;;5113484;28;20038;-70
2022/09/14 06:04:43;;;;;;;4.50;1.70;;;23.40;73.50;;;;;;5095201;28;20020;-70
2022/09/14 06:07:09;;;;;;;2.15;1.92;;;23.40;73.50;;;;;;5112184;28;20027;-70
2022/09/14 06:09:34;;;;;;;4.50;1.73;;;23.40;73.50;;;;;;5113293;28;20031;-70
2022/09/14 06:12:00;;;;;;;3.58;2.10;;;23.40;73.60;;;;;;5113185;28;20491;-70
2022/09/14 06:14:26;;;;;;;3.85;2.80;;;23.40;73.20;;;;;;5113107;28;20054;-69
2022/09/14 06:16:51;;;;;;;5.32;2.90;;;23.40;72.40;;;;;;5100479;28;20028;-70
2022/09/14 06:19:17;;;;;;;3.40;3.08;;;23.30;72.10;;;;;;5072538;28;20500;-69
2022/09/14 06:21:43;;;;;;;3.38;3.08;;;23.30;72.00;;;;;;5072430;28;20024;-70
2022/09/14 06:24:11;;;;;;;3.05;2.75;;;23.30;72.00;;;;;;5076276;28;20063;-70
2022/09/14 06:26:37;;;;;;;4.05;3.05;;;23.30;71.80;;;;;;5110510;28;20089;-69
2022/09/14 06:29:03;;;;;;;3.78;3.08;;;23.30;71.60;;;;;;5090622;28;20092;-69
2022/09/14 06:31:29;;;;;;;3.38;3.15;;;23.20;71.30;;;;;;5090977;28;20505;-69
2022/09/14 06:33:54;;;;;;;3.55;2.67;;;23.20;71.20;;;;;;5090905;28;20039;-69
2022/09/14 06:36:25;;;;;;;5.13;3.10;;;23.20;71.10;;;;;;5091908;28;20392;-70
2022/09/14 06:38:50;;;;;;;2.92;2.70;;;23.20;71.00;;;;;;5091892;28;20085;-70
2022/09/14 06:41:19;;;;;;;3.20;2.90;;;23.20;70.90;;;;;;5074013;28;20028;-70
2022/09/14 06:43:44;;;;;;;5.47;2.75;;;23.20;70.70;;;;;;5091698;28;20499;-69
2022/09/14 06:46:12;;;;;;;3.00;2.50;;;23.20;70.80;;;;;;5091939;28;20077;-69
2022/09/14 06:48:40;;;;;;;7.22;2.78;;;23.20;70.70;;;;;;5090437;28;20050;-69
2022/09/14 06:51:12;;;;;;;4.10;2.80;;;23.10;70.60;;;;;;5090439;28;20043;-69
2022/09/14 06:53:38;;;;;;;3.13;2.85;;;23.20;70.70;;;;;;5091696;28;20569;-69
2022/09/14 06:56:04;;;;;;;6.95;3.20;;;23.10;70.40;;;;;;5091753;28;20025;-69
2022/09/14 06:58:29;;;;;;;6.13;3.10;;;23.10;70.40;;;;;;5091432;28;20021;-69
2022/09/14 07:01:00;;;;;;;3.75;2.95;;;23.10;70.30;;;;;;5091424;28;20035;-70
2022/09/14 07:03:26;;;;;;;4.78;3.50;;;23.10;70.30;;;;;;5091732;28;20103;-71
2022/09/14 07:05:52;;;;;;;5.25;2.85;;;23.10;70.50;;;;;;5091517;28;20119;-71
2022/09/14 07:08:17;;;;;;;4.70;2.78;;;23.10;70.40;;;;;;5091711;28;20060;-71
2022/09/14 07:10:43;;;;;;;4.20;2.97;;;23.10;70.40;;;;;;5091660;28;20058;-71
2022/09/14 07:13:09;;;;;;;12.23;2.95;;;23.10;70.30;;;;;;5091387;28;20028;-71
2022/09/14 07:15:35;;;;;;;3.15;2.85;;;23.00;70.40;;;;;;5091697;28;20028;-71
2022/09/14 07:18:00;;;;;;;2.92;2.70;;;23.00;70.40;;;;;;5076073;28;20033;-71
2022/09/14 07:20:26;;;;;;;3.35;2.50;;;23.00;70.50;;;;;;5071268;28;20060;-71
2022/09/14 07:22:52;;;;;;;4.38;2.75;;;23.00;70.50;;;;;;5084175;28;20103;-70
2022/09/14 07:25:17;;;;;;;4.05;2.80;;;23.00;70.50;;;;;;5091217;28;20100;-71
2022/09/14 07:27:43;;;;;;;28.02;4.03;;;23.00;70.60;;;;;;5091346;28;20031;-72
2022/09/14 07:30:09;;;;;;;8.20;3.30;;;23.00;70.70;;;;;;5091285;28;20375;-72
2022/09/14 07:32:34;;;;;;;4.93;3.08;;;22.90;70.60;;;;;;5091367;28;20055;-71
2022/09/14 07:35:00;;;;;;;6.90;3.47;;;22.90;70.60;;;;;;5091126;28;20103;-71
2022/09/14 07:37:26;;;;;;;6.78;2.67;;;22.90;70.60;;;;;;5091260;28;20032;-70
2022/09/14 07:39:51;;;;;;;6.90;2.80;;;22.90;70.60;;;;;;5091875;28;20020;-69
2022/09/14 07:42:17;;;;;;;5.97;3.00;;;22.90;70.60;;;;;;5095211;28;20042;-70
2022/09/14 07:44:42;;;;;;;6.05;2.55;;;22.90;70.60;;;;;;5095834;28;20035;-69
2022/09/14 07:47:08;;;;;;;3.15;2.70;;;22.90;70.60;;;;;;5094666;28;20024;-70
2022/09/14 07:49:34;;;;;;;4.50;2.78;;;22.90;70.70;;;;;;5094711;28;20040;-70
2022/09/14 07:51:59;;;;;;;4.80;2.65;;;22.90;70.60;;;;;;5094714;28;20020;-70
2022/09/14 07:54:25;;;;;;;6.18;2.97;;;22.90;70.70;;;;;;5094616;28;20036;-70
2022/09/14 07:56:51;;;;;;;4.80;2.40;;;22.90;70.60;;;;;;5094335;28;20053;-70
2022/09/14 07:59:16;;;;;;;7.90;3.78;;;22.90;70.70;;;;;;5094527;28;20528;-70
2022/09/14 08:01:42;;;;;;;5.93;2.83;;;22.90;70.70;;;;;;5094708;28;20518;-70
2022/09/14 08:04:08;;;;;;;5.90;2.58;;;22.90;70.70;;;;;;5093414;28;20031;-69
2022/09/14 08:06:34;;;;;;;5.55;2.72;;;22.90;70.70;;;;;;5094706;28;20020;-70
2022/09/14 08:08:59;;;;;;;9.07;3.45;;;22.90;70.80;;;;;;5092802;28;20028;-70
2022/09/14 08:11:25;;;;;;;4.82;2.97;;;22.80;70.80;;;;;;5094112;28;20486;-70
2022/09/14 08:13:58;;;;;;;3.88;2.80;;;22.90;70.80;;;;;;5089235;28;20024;-70
2022/09/14 08:16:24;;;;;;;5.93;3.20;;;22.80;70.80;;;;;;5082353;28;20039;-71
2022/09/14 08:18:54;;;;;;;3.05;2.60;;;22.90;70.90;;;;;;5084491;28;20036;-71
2022/09/14 08:21:20;;;;;;;4.88;3.03;;;22.80;70.90;;;;;;5082424;28;20023;-71
2022/09/14 08:23:46;;;;;;;5.07;3.13;;;22.80;71.00;;;;;;5082719;28;20107;-71
2022/09/14 08:26:14;;;;;;;3.97;3.20;;;22.90;71.00;;;;;;5080460;28;20448;-71
2022/09/14 08:28:40;;;;;;;3.33;3.00;;;22.80;70.90;;;;;;5078399;28;20590;-71
2022/09/14 08:31:10;;;;;;;5.78;3.30;;;22.80;70.90;;;;;;5086672;28;20036;-71
2022/09/14 08:33:38;;;;;;;4.95;3.20;;;22.80;71.00;;;;;;5093646;28;20024;-71
2022/09/14 08:36:05;;;;;;;7.43;3.17;;;22.80;71.00;;;;;;5093410;28;20028;-71
2022/09/14 08:38:30;;;;;;;6.10;3.05;;;22.80;71.10;;;;;;5076869;28;20232;-70
2022/09/14 08:40:57;;;;;;;6.60;3.08;;;22.80;71.10;;;;;;5093106;28;20020;-71
2022/09/14 08:43:24;;;;;;;11.30;3.80;;;22.80;71.10;;;;;;5093025;28;20020;-70
2022/09/14 08:45:50;;;;;;;15.05;4.53;;;22.80;71.10;;;;;;5076925;28;20032;-67
2022/09/14 08:48:25;;;;;;;20.27;5.90;;;22.80;71.40;;;;;;5073430;28;20035;-67
2022/09/14 08:50:52;;;;;;;19.80;5.10;;;22.80;71.40;;;;;;5071792;28;20159;-67
2022/09/14 08:53:23;;;;;;;16.23;5.00;;;22.80;71.50;;;;;;5073950;28;20508;-67
2022/09/14 08:55:53;;;;;;;14.13;5.40;;;22.80;71.50;;;;;;5072065;28;20051;-67
2022/09/14 08:58:42;;;;;;;9.30;4.45;;;22.80;71.60;;;;;;5072942;28;20392;-67
2022/09/14 09:01:13;;;;;;;12.38;4.57;;;22.80;71.50;;;;;;5072144;28;20020;-67
2022/09/14 09:04:10;;;;;;;14.75;4.82;;;22.80;71.60;;;;;;5074191;28;20105;-68
2022/09/14 09:07:06;;;;;;;10.40;4.95;;;22.80;71.50;;;;;;5073810;28;20389;-67
2022/09/14 09:09:32;;;;;;;15.43;4.82;;;22.80;71.70;;;;;;5073884;28;20028;-67
2022/09/14 09:11:57;;;;;;;12.70;4.25;;;22.80;71.60;;;;;;5072510;28;20017;-67
2022/09/14 09:14:26;;;;;;;13.40;4.63;;;22.80;71.70;;;;;;5072531;28;20531;-68
2022/09/14 09:16:53;;;;;;;10.90;4.38;;;22.80;71.70;;;;;;5073892;28;20024;-67
2022/09/14 09:19:32;;;;;;;9.43;4.63;;;22.80;71.70;;;;;;5072552;28;20473;-67
2022/09/14 09:21:58;;;;;;;10.15;4.20;;;22.80;71.70;;;;;;5072296;28;20515;-67
2022/09/14 09:24:38;;;;;;;14.35;4.72;;;22.80;71.70;;;;;;5063324;28;20019;-67
2022/09/14 09:27:23;;;;;;;9.10;4.55;;;22.80;71.80;;;;;;5112904;28;20027;-67
2022/09/14 09:29:49;;;;;;;10.63;4.38;;;22.80;71.70;;;;;;5112889;28;20024;-67
2022/09/14 09:32:17;;;;;;;9.35;4.60;;;22.80;71.80;;;;;;5112879;28;20139;-67
2022/09/14 09:34:43;;;;;;;7.65;3.92;;;22.70;71.70;;;;;;5112886;28;20054;-67
2022/09/14 09:37:16;;;;;;;10.50;3.92;;;22.70;71.80;;;;;;5095678;28;20059;-67
2022/09/14 09:39:42;;;;;;;7.35;3.92;;;22.70;71.80;;;;;;5112561;28;20035;-67
2022/09/14 09:42:34;;;;;;;6.97;4.00;;;22.80;72.00;;;;;;5112919;28;20026;-67
2022/09/14 09:45:02;;;;;;;8.98;4.40;;;22.70;72.10;;;;;;5110062;28;20119;-67
2022/09/14 09:47:39;;;;;;;7.63;4.78;;;22.70;72.20;;;;;;5113812;28;20023;-67
2022/09/14 09:50:19;;;;;;;12.10;5.55;;;22.70;72.30;;;;;;5096921;28;20271;-67
2022/09/14 09:52:56;;;;;;;9.32;4.43;;;22.70;72.30;;;;;;5095761;28;20051;-68
2022/09/14 09:55:25;;;;;;;8.95;4.28;;;22.70;72.20;;;;;;5112348;28;20011;-67
2022/09/14 09:57:52;;;;;;;9.68;4.38;;;22.70;72.20;;;;;;5112548;28;20029;-67
2022/09/14 10:00:23;;;;;;;7.40;4.35;;;22.70;72.20;;;;;;5095362;28;20111;-67
2022/09/14 10:02:49;;;;;;;6.75;4.60;;;22.70;72.20;;;;;;5111373;28;20121;-67
2022/09/14 10:05:23;;;;;;;9.70;4.70;;;22.70;72.10;;;;;;5112281;28;20033;-67
2022/09/14 10:07:49;;;;;;;9.65;4.30;;;22.70;72.10;;;;;;5112137;28;20046;-67
2022/09/14 10:10:16;;;;;;;7.13;5.00;;;22.70;72.10;;;;;;5113231;28;20407;-67
2022/09/14 10:12:49;;;;;;;6.93;4.50;;;22.70;72.20;;;;;;5112297;28;20028;-67
2022/09/14 10:15:30;;;;;;;9.32;4.28;;;22.70;72.20;;;;;;5095449;28;20108;-67
2022/09/14 10:18:07;;;;;;;9.48;4.65;;;22.70;72.20;;;;;;5082640;28;20082;-67
2022/09/14 10:20:33;;;;;;;9.48;4.57;;;22.70;72.40;;;;;;5071302;28;20516;-67
2022/09/14 10:23:26;;;;;;;7.38;4.78;;;22.70;72.50;;;;;;5071094;28;20063;-67
2022/09/14 10:26:11;;;;;;;10.43;4.65;;;22.70;72.50;;;;;;5101063;28;20031;-67
2022/09/14 10:28:41;;;;;;;10.60;5.60;;;22.70;72.50;;;;;;5097543;28;20101;-67
2022/09/14 10:31:18;;;;;;;10.43;5.90;;;22.70;72.60;;;;;;5095308;28;20099;-68
2022/09/14 10:33:47;;;;;;;10.57;5.68;;;22.60;72.70;;;;;;5112906;28;20027;-67
2022/09/14 10:36:29;;;;;;;7.47;5.22;;;22.60;72.80;;;;;;5111595;28;20035;-67
2022/09/14 10:39:25;;;;;;;7.82;4.60;;;22.70;72.80;;;;;;5111780;28;20023;-67
2022/09/14 10:42:15;;;;;;;9.05;4.90;;;22.60;72.60;;;;;;5111823;28;20060;-67
2022/09/14 10:45:00;;;;;;;9.75;4.35;;;22.70;72.70;;;;;;5112025;28;20027;-67
2022/09/14 10:47:48;;;;;;;10.63;4.72;;;22.70;72.60;;;;;;5112735;28;20024;-67
2022/09/14 10:50:42;;;;;;;6.22;4.32;;;22.60;72.50;;;;;;5111093;28;20043;-67
2022/09/14 10:53:19;;;;;;;8.18;4.47;;;22.70;72.50;;;;;;5104954;28;20077;-67
2022/09/14 10:55:52;;;;;;;8.02;4.72;;;22.70;72.60;;;;;;5111471;28;20019;-67
2022/09/14 10:58:29;;;;;;;9.18;5.38;;;22.70;72.60;;;;;;5112703;28;20099;-68
2022/09/14 11:01:07;;;;;;;6.68;4.50;;;22.60;72.50;;;;;;5112674;28;20019;-67
2022/09/14 11:04:18;;;;;;;6.70;4.20;;;22.70;72.60;;;;;;5112651;28;20028;-67
2022/09/14 11:07:11;;;;;;;8.10;5.20;;;22.60;72.50;;;;;;5049767;28;20029;-67
2022/09/14 11:10:21;;;;;;;8.75;5.07;;;22.60;72.50;;;;;;5033423;28;20037;-67
2022/09/14 11:13:19;;;;;;;9.05;4.82;;;22.70;72.60;;;;;;5049848;28;20076;-67
2022/09/14 11:16:06;;;;;;;6.68;4.95;;;22.60;72.50;;;;;;5039849;28;20021;-67
2022/09/14 11:18:51;;;;;;;9.45;5.40;;;22.60;72.50;;;;;;5034236;28;20069;-67
2022/09/14 11:21:22;;;;;;;9.88;5.20;;;22.70;72.70;;;;;;5033501;28;20033;-67
2022/09/14 11:23:49;;;;;;;10.82;5.65;;;22.60;72.60;;;;;;5033874;28;20061;-67
2022/09/14 11:26:24;;;;;;;9.00;5.53;;;22.60;72.50;;;;;;5036193;28;20060;-67
2022/09/14 11:29:14;;;;;;;9.25;5.60;;;22.70;72.70;;;;;;5021404;28;20143;-67
2022/09/14 11:31:54;;;;;;;8.88;5.60;;;22.60;72.70;;;;;;5032600;28;20033;-67
2022/09/14 11:34:29;;;;;;;10.30;5.22;;;22.60;72.60;;;;;;5037458;28;20021;-67
2022/09/14 11:37:05;;;;;;;12.70;5.70;;;22.60;72.50;;;;;;5039270;28;20028;-67
2022/09/14 11:39:47;;;;;;;13.05;6.30;;;22.70;72.60;;;;;;5099202;28;20110;-68
2022/09/14 11:42:19;;;;;;;7.90;5.65;;;22.70;72.60;;;;;;5099308;28;20028;-67
2022/09/14 11:44:46;;;;;;;9.38;5.28;;;22.60;72.50;;;;;;5098819;28;20019;-67
2022/09/14 11:47:19;;;;;;;8.35;5.38;;;22.70;72.50;;;;;;5116132;28;20019;-67
2022/09/14 11:49:54;;;;;;;9.13;5.68;;;22.60;72.60;;;;;;5098072;28;20180;-67
2022/09/14 11:52:27;;;;;;;7.82;5.55;;;22.70;72.60;;;;;;5115820;28;20054;-67
2022/09/14 11:54:53;;;;;;;9.93;6.13;;;22.60;72.60;;;;;;5116155;28;20018;-67
2022/09/14 11:57:30;;;;;;;6.90;4.72;;;22.60;72.70;;;;;;5097892;28;20023;-67
2022/09/14 12:00:22;;;;;;;9.10;5.40;;;22.60;72.80;;;;;;5098785;28;20016;-67
2022/09/14 12:03:13;;;;;;;15.32;5.68;;;22.60;72.60;;;;;;5100599;28;20491;-67
2022/09/14 12:05:39;;;;;;;8.85;5.90;;;22.60;72.60;;;;;;5115793;28;20034;-67
2022/09/14 12:08:34;;;;;;;9.50;5.97;;;22.60;73.00;;;;;;5114656;28;20611;-67
2022/09/14 12:11:21;;;;;;;8.88;5.82;;;22.60;72.90;;;;;;5107962;28;20067;-67
2022/09/14 12:13:47;;;;;;;11.32;6.85;;;22.60;73.10;;;;;;5100135;28;20030;-68
2022/09/14 12:16:13;;;;;;;9.52;6.28;;;22.60;73.10;;;;;;5114923;28;20019;-67
2022/09/14 12:18:39;;;;;;;10.77;6.40;;;22.60;73.10;;;;;;5073505;28;20407;-67
2022/09/14 12:21:16;;;;;;;13.27;6.30;;;22.60;73.00;;;;;;5073671;28;20024;-68
2022/09/14 12:23:44;;;;;;;13.50;6.53;;;22.60;73.10;;;;;;5074741;28;20024;-67
2022/09/14 12:26:09;;;;;;;10.68;6.22;;;22.60;73.00;;;;;;5110116;28;20016;-67
2022/09/14 12:28:36;;;;;;;13.00;6.95;;;22.60;73.10;;;;;;5115422;28;20103;-67
2022/09/14 12:31:01;;;;;;;13.63;6.95;;;22.60;73.40;;;;;;5115394;28;20044;-67
2022/09/14 12:33:30;;;;;;;16.13;8.07;;;22.60;73.50;;;;;;5114981;28;20079;-67
2022/09/14 12:36:21;;;;;;;18.38;9.75;;;22.60;73.80;;;;;;5115309;28;20575;-67
2022/09/14 12:38:49;;;;;;;24.27;10.05;;;22.60;73.90;;;;;;5115074;28;20059;-67
2022/09/14 12:41:18;;;;;;;24.35;9.65;;;22.60;74.20;;;;;;5115059;28;20104;-67
2022/09/14 12:43:52;;;;;;;20.95;9.82;;;22.60;74.20;;;;;;5115145;28;20034;-67
2022/09/14 12:46:21;;;;;;;26.77;10.32;;;22.60;74.20;;;;;;5113719;28;20043;-67
2022/09/14 12:48:51;;;;;;;28.70;10.73;;;22.60;74.40;;;;;;5114888;28;20043;-67
2022/09/14 12:51:30;;;;;;;26.90;9.70;;;22.50;74.50;;;;;;5113551;28;20410;-67
2022/09/14 12:54:07;;;;;;;20.73;9.52;;;22.50;74.30;;;;;;5114738;28;20380;-67
2022/09/14 12:56:36;;;;;;;26.10;9.60;;;22.50;74.20;;;;;;5114820;28;20535;-67
2022/09/14 12:59:24;;;;;;;26.92;9.20;;;22.50;74.20;;;;;;5114802;28;20076;-67
2022/09/14 13:02:24;;;;;;;23.98;9.05;;;22.50;74.20;;;;;;5113474;28;20027;-68
2022/09/14 13:04:53;;;;;;;24.98;9.30;;;22.60;74.00;;;;;;5114816;28;20028;-67